ADDS METAR Data INFO
IDs: Format: Raw Decoded Include TAF

Data at: 1718 UTC 23 Oct 2017

KPUB 231653Z 10011KT 10SM CLR 12/01 A3044 RMK AO2 SLP275 T01170011
KPUB 231553Z 08015KT 10SM CLR 11/01 A3042 RMK AO2 SLP278 T01110011
KPUB 231453Z 09003KT 10SM CLR 08/M01 A3036 RMK AO2 PRESRR SLP256 T00831006 53041
KPUB 231353Z 17005KT 10SM CLR 07/M02 A3027 RMK AO2 SLP225 T00721017
KPUB 231253Z 00000KT 10SM CLR 07/M03 A3023 RMK AO2 SLP209 T00721028
KPUB 231153Z AUTO 00000KT 10SM CLR 08/M03 A3022 RMK AO2 SLP198 T00831033 10183 20083 53023
KPUB 231053Z AUTO VRB04KT 10SM CLR 11/M03 A3018 RMK AO2 SLP178 T01111033
KPUB 230953Z AUTO 31006KT 10SM CLR 14/M04 A3015 RMK AO2 SLP160 T01391039
KPUB 230853Z AUTO 31010KT 10SM CLR 14/M04 A3014 RMK AO2 SLP152 T01441039 53003
KPUB 230753Z AUTO 31009KT 10SM CLR 16/M04 A3014 RMK AO2 SLP155 T01561039
KPUB 230653Z AUTO 30009KT 10SM CLR 16/M05 A3013 RMK AO2 SLP156 T01561050 402501033
KPUB 230553Z AUTO 29012G19KT 10SM CLR 17/M05 A3013 RMK AO2 SLP162 T01721050 10200 20117 51006
KPUB 230453Z AUTO 31011KT 10SM CLR 17/M04 A3012 RMK AO2 SLP165 T01671039
KPUB 230353Z 36007KT 10SM CLR 12/M03 A3012 RMK AO2 SLP177 T01221033
KPUB 230253Z 00000KT 10SM CLR 15/M04 A3011 RMK AO2 SLP177 T01501039 53009
KPUB 230153Z 04005KT 10SM CLR 16/M03 A3010 RMK AO2 SLP178 T01561033
KPUB 230053Z 09006KT 10SM CLR 17/M03 A3008 RMK AO2 SLP176 T01671033
KPUB 222353Z 12007KT 10SM CLR 21/M03 A3008 RMK AO2 SLP167 T02061033 10250 20150 55002
KPUB 222253Z 08005KT 10SM CLR 22/M03 A3007 RMK AO2 SLP158 T02171028
KPUB 222153Z 02005KT 10SM CLR 23/M04 A3008 RMK AO2 SLP161 T02331039
KPUB 222053Z 10SM CLR 25/M04 A3008 RMK AO2 SLP158 T02501039 56029
KPUB 221953Z 14007KT 110V180 10SM CLR 22/M04 A3010 RMK AO2 SLP169 T02221044
KPUB 221853Z 00000KT 10SM CLR 19/M06 A3014 RMK AO2 SLP184 T01941056
KPUB 221753Z VRB03KT 10SM CLR 15/M07 A3018 RMK AO2 SLP208 T01501067 10150 21033 58019
KPUB 221653Z 25005KT 10SM CLR 11/M08 A3022 RMK AO2 SLP229 T01111083
KPUB 221553Z 29007KT 10SM CLR 09/M09 A3024 RMK AO2 SLP232 T00891089
KPUB 221453Z 19004KT 10SM CLR 04/M07 A3025 RMK AO2 SLP244 T00391067 53009
KPUB 221353Z 00000KT 10SM CLR M01/M07 A3023 RMK AO2 SLP237 T10061072
KPUB 221253Z 30006KT 10SM CLR M03/M08 A3021 RMK AO2 SLP236 T10281078
KPUB 221153Z 23003KT 10SM CLR M03/M08 A3022 RMK AO2 SLP228 T10331083 10022 21033 51006
KPUB 221053Z AUTO 09004KT 10SM CLR M01/M07 A3021 RMK AO2 SLP217 T10061072
KPUB 220953Z AUTO 00000KT 10SM CLR M02/M08 A3021 RMK AO2 SLP219 T10221078
KPUB 220853Z AUTO 06004KT 10SM CLR M01/M08 A3020 RMK AO2 SLP212 T10111078 52003
KPUB 220753Z AUTO 02003KT 10SM CLR M01/M09 A3019 RMK AO2 SLP213 T10111089
KPUB 220653Z AUTO 21003KT 10SM CLR 01/M09 A3019 RMK AO2 SLP211 T00061094 402061011
KPUB 220553Z AUTO 25004KT 10SM CLR 00/M09 A3019 RMK AO2 SLP210 T00001094 10150 20000 51011